createdAt,value
2017-04-12T00:00:12.671Z,3.15
2017-04-12T00:01:12.883Z,2.90
2017-04-12T00:02:13.134Z,3.10
2017-04-12T00:03:13.381Z,2.98
2017-04-12T00:04:13.631Z,3.10
2017-04-12T00:05:13.865Z,2.67
2017-04-12T00:06:14.089Z,2.40
2017-04-12T00:07:14.449Z,2.55
2017-04-12T00:08:14.729Z,2.20
2017-04-12T00:09:14.974Z,2.40
2017-04-12T00:10:15.229Z,2.13
2017-04-12T00:11:16.215Z,2.27
2017-04-12T00:12:16.462Z,2.18
2017-04-12T00:13:16.713Z,2.00
2017-04-12T00:14:16.965Z,2.40
2017-04-12T00:15:17.164Z,2.97
2017-04-12T00:16:17.412Z,3.55
2017-04-12T00:17:17.618Z,1.95
2017-04-12T00:18:17.903Z,2.17
2017-04-12T00:19:18.119Z,2.60
2017-04-12T00:20:18.333Z,3.37
2017-04-12T00:21:18.574Z,3.07
2017-04-12T00:22:18.803Z,2.90
2017-04-12T00:23:19.047Z,3.02
2017-04-12T00:24:19.257Z,2.63
2017-04-12T00:25:19.445Z,2.60
2017-04-12T00:26:19.642Z,2.57
2017-04-12T00:27:19.901Z,2.32
2017-04-12T00:28:20.910Z,2.40
2017-04-12T00:29:21.143Z,2.22
2017-04-12T00:30:21.654Z,2.48
2017-04-12T00:31:21.845Z,2.77
2017-04-12T00:32:22.050Z,2.50
2017-04-12T00:33:22.273Z,2.25
2017-04-12T00:34:22.461Z,3.12
2017-04-12T00:35:22.687Z,2.88
2017-04-12T00:36:23.069Z,2.80
2017-04-12T00:37:23.395Z,2.58
2017-04-12T00:38:23.795Z,2.98
2017-04-12T00:39:24.072Z,2.68
2017-04-12T00:40:24.353Z,2.92
2017-04-12T00:41:24.554Z,2.93
2017-04-12T00:42:24.878Z,3.80
2017-04-12T00:43:26.423Z,3.20
2017-04-12T00:44:26.735Z,3.28
2017-04-12T00:45:27.768Z,4.10
2017-04-12T00:46:27.996Z,2.50
2017-04-12T00:47:28.466Z,2.85
2017-04-12T00:48:28.720Z,3.32
2017-04-12T00:49:29.558Z,2.30
2017-04-12T00:50:29.741Z,2.78
2017-04-12T00:51:30.065Z,2.52
2017-04-12T00:52:30.313Z,3.03
2017-04-12T00:53:30.998Z,2.43
2017-04-12T00:54:31.188Z,2.70
2017-04-12T00:55:31.429Z,3.00
2017-04-12T00:56:31.610Z,2.68
2017-04-12T00:57:31.817Z,2.83
2017-04-12T00:58:32.042Z,2.85
2017-04-12T00:59:32.231Z,3.13
2017-04-12T01:00:32.557Z,3.12
2017-04-12T01:01:32.778Z,2.67
2017-04-12T01:02:33.078Z,2.88
2017-04-12T01:03:33.319Z,2.72
2017-04-12T01:04:34.074Z,2.87
2017-04-12T01:05:34.309Z,3.35
2017-04-12T01:06:34.517Z,2.80
2017-04-12T01:07:34.710Z,3.30
2017-04-12T01:08:35.022Z,2.98
2017-04-12T01:09:35.239Z,2.82
2017-04-12T01:10:35.549Z,2.70
2017-04-12T01:11:35.740Z,2.82
2017-04-12T01:12:35.975Z,2.90
2017-04-12T01:13:36.200Z,3.30
2017-04-12T01:14:36.470Z,2.95
2017-04-12T01:15:36.819Z,3.00
2017-04-12T01:16:37.099Z,3.10
2017-04-12T01:17:37.304Z,2.92
2017-04-12T01:18:38.273Z,2.58
2017-04-12T01:19:39.226Z,2.68
2017-04-12T01:20:39.492Z,2.93
2017-04-12T01:21:39.705Z,3.03
2017-04-12T01:22:39.923Z,3.38
2017-04-12T01:23:40.131Z,3.08
2017-04-12T01:24:40.318Z,3.10
2017-04-12T01:25:40.613Z,2.50
2017-04-12T01:26:40.843Z,2.72
2017-04-12T01:27:41.193Z,2.92
2017-04-12T01:28:42.166Z,2.82
2017-04-12T01:29:42.457Z,3.12
2017-04-12T01:30:42.720Z,2.40
2017-04-12T01:31:43.048Z,3.22
2017-04-12T01:32:43.323Z,2.70
2017-04-12T01:33:43.575Z,3.42
2017-04-12T01:34:43.933Z,2.65
2017-04-12T01:35:44.318Z,3.02
2017-04-12T01:36:44.545Z,2.87
2017-04-12T01:37:44.886Z,3.83
2017-04-12T01:38:45.138Z,2.92
2017-04-12T01:39:45.441Z,3.20
2017-04-12T01:40:45.736Z,3.13
2017-04-12T01:41:46.046Z,3.45
2017-04-12T01:42:46.274Z,3.30
2017-04-12T01:43:46.642Z,3.10
2017-04-12T01:44:46.954Z,3.43
2017-04-12T01:45:47.271Z,3.42
2017-04-12T01:46:47.504Z,3.05
2017-04-12T01:47:47.707Z,2.63
2017-04-12T01:48:47.918Z,3.38
2017-04-12T01:49:48.125Z,3.38
2017-04-12T01:50:49.339Z,3.22
2017-04-12T01:51:49.549Z,2.92
2017-04-12T01:52:49.890Z,2.78
2017-04-12T01:53:50.162Z,3.20
2017-04-12T01:54:50.427Z,3.35
2017-04-12T01:55:50.794Z,3.22
2017-04-12T01:56:51.165Z,2.73
2017-04-12T01:57:51.423Z,2.55
2017-04-12T01:58:52.051Z,2.65
2017-04-12T01:59:52.397Z,3.62
2017-04-12T02:00:52.722Z,2.90
2017-04-12T02:01:53.143Z,2.32
2017-04-12T02:02:53.413Z,2.63
2017-04-12T02:03:53.634Z,2.97
2017-04-12T02:04:53.859Z,3.32
2017-04-12T02:05:54.090Z,3.87
2017-04-12T02:06:54.346Z,3.37
2017-04-12T02:07:54.638Z,3.27
2017-04-12T02:08:54.862Z,2.65
2017-04-12T02:09:55.078Z,2.80
2017-04-12T02:10:55.309Z,3.03
2017-04-12T02:11:55.540Z,2.95
2017-04-12T02:12:55.912Z,4.15
2017-04-12T02:13:56.919Z,3.30
2017-04-12T02:14:58.324Z,3.20
2017-04-12T02:15:58.553Z,3.22
2017-04-12T02:16:59.067Z,3.25
2017-04-12T02:17:59.694Z,2.58
2017-04-12T02:19:00.230Z,3.30
2017-04-12T02:20:01.243Z,3.03
2017-04-12T02:21:01.833Z,2.93
2017-04-12T02:22:02.046Z,2.72
2017-04-12T02:23:02.338Z,2.48
2017-04-12T02:24:02.549Z,3.47
2017-04-12T02:25:03.068Z,2.45
2017-04-12T02:26:03.314Z,2.47
2017-04-12T02:27:04.341Z,2.88
2017-04-12T02:28:04.670Z,2.50
2017-04-12T02:29:04.898Z,2.60
2017-04-12T02:30:05.427Z,3.32
2017-04-12T02:31:05.643Z,2.65
2017-04-12T02:32:05.927Z,2.78
2017-04-12T02:33:06.453Z,2.77
2017-04-12T02:34:06.870Z,2.67
2017-04-12T02:35:07.203Z,2.65
2017-04-12T02:36:07.505Z,2.67
2017-04-12T02:37:07.746Z,3.07
2017-04-12T02:38:08.293Z,2.43
2017-04-12T02:39:08.527Z,2.72
2017-04-12T02:40:08.740Z,2.38
2017-04-12T02:41:08.964Z,2.70
2017-04-12T02:42:09.211Z,2.63
2017-04-12T02:43:09.484Z,3.35
2017-04-12T02:44:09.691Z,2.62
2017-04-12T02:45:09.890Z,3.45
2017-04-12T02:46:10.081Z,3.02
2017-04-12T02:47:10.322Z,3.80
2017-04-12T02:48:10.604Z,3.90
2017-04-12T02:49:10.855Z,3.17
2017-04-12T02:50:11.205Z,3.00
2017-04-12T02:51:11.469Z,3.03
2017-04-12T02:52:11.699Z,3.27
2017-04-12T02:53:11.920Z,2.93
2017-04-12T02:54:12.192Z,3.20
2017-04-12T02:55:12.417Z,2.75
2017-04-12T02:56:12.633Z,2.93
2017-04-12T02:57:12.842Z,2.88
2017-04-12T02:58:13.329Z,2.52
2017-04-12T02:59:13.582Z,2.73
2017-04-12T03:00:13.837Z,2.75
2017-04-12T03:01:14.038Z,2.70
2017-04-12T03:02:14.305Z,3.53
2017-04-12T03:03:14.542Z,2.83
2017-04-12T03:04:14.822Z,3.03
2017-04-12T03:05:15.118Z,3.43
2017-04-12T03:06:15.315Z,3.45
2017-04-12T03:07:15.513Z,3.05
2017-04-12T03:08:14.974Z,2.67
2017-04-12T03:09:15.238Z,3.33
2017-04-12T03:10:15.481Z,3.23
2017-04-12T03:11:15.698Z,3.00
2017-04-12T03:12:15.945Z,3.20
2017-04-12T03:13:16.235Z,3.53
2017-04-12T03:14:16.441Z,2.73
2017-04-12T03:15:16.694Z,2.60
2017-04-12T03:16:16.986Z,3.50
2017-04-12T03:17:17.269Z,2.25
2017-04-12T03:18:17.485Z,3.30
2017-04-12T03:19:17.698Z,2.40
2017-04-12T03:20:17.952Z,2.92
2017-04-12T03:21:18.163Z,3.57
2017-04-12T03:22:18.385Z,3.05
2017-04-12T03:23:18.601Z,2.63
2017-04-12T03:24:18.809Z,2.95
2017-04-12T03:25:19.079Z,2.90
2017-04-12T03:26:19.281Z,3.33
2017-04-12T03:27:19.603Z,3.03
2017-04-12T03:28:19.825Z,2.23
2017-04-12T03:29:20.039Z,3.47
2017-04-12T03:30:20.337Z,3.35
2017-04-12T03:31:20.546Z,3.03
2017-04-12T03:32:20.799Z,2.87
2017-04-12T03:33:21.104Z,2.43
2017-04-12T03:34:21.309Z,3.27
2017-04-12T03:35:28.491Z,3.12
2017-04-12T03:36:28.713Z,3.25
2017-04-12T03:37:28.950Z,3.47
2017-04-12T03:38:29.249Z,3.28
2017-04-12T03:39:29.555Z,3.47
2017-04-12T03:40:29.774Z,3.32
2017-04-12T03:41:30.789Z,2.78
2017-04-12T03:42:30.995Z,2.58
2017-04-12T03:43:31.184Z,3.25
2017-04-12T03:44:31.387Z,3.40
2017-04-12T03:45:34.087Z,3.07
2017-04-12T03:46:37.909Z,3.00
2017-04-12T03:47:45.576Z,3.62
2017-04-12T03:48:47.244Z,3.17
2017-04-12T03:49:48.336Z,3.00
2017-04-12T03:50:59.486Z,2.85
2017-04-12T03:52:01.232Z,2.67
2017-04-12T03:53:03.288Z,3.33
2017-04-12T03:54:06.433Z,3.48
2017-04-12T03:55:20.499Z,3.55
2017-04-12T03:56:22.612Z,3.22
2017-04-12T03:57:30.453Z,3.35
2017-04-12T03:58:35.395Z,3.15
2017-04-12T03:59:41.525Z,3.52
2017-04-12T04:00:53.960Z,3.15
2017-04-12T04:02:02.183Z,3.38
2017-04-12T04:03:06.465Z,3.10
2017-04-12T04:04:14.326Z,2.88
2017-04-12T04:05:16.486Z,2.83
2017-04-12T04:06:16.697Z,3.97
2017-04-12T04:07:16.941Z,3.00
2017-04-12T04:08:17.203Z,3.03
2017-04-12T04:09:17.467Z,2.52
2017-04-12T04:10:17.677Z,2.88
2017-04-12T04:11:17.880Z,3.50
2017-04-12T04:12:18.850Z,3.53
2017-04-12T04:13:19.102Z,2.62
2017-04-12T04:14:19.349Z,3.55
2017-04-12T04:15:19.615Z,3.50
2017-04-12T04:16:19.853Z,3.35
2017-04-12T04:17:20.101Z,3.85
2017-04-12T04:18:20.890Z,2.25
2017-04-12T04:19:20.350Z,3.17
2017-04-12T04:20:20.609Z,3.92
2017-04-12T04:21:20.853Z,3.53
2017-04-12T04:22:21.112Z,3.75
2017-04-12T04:23:21.313Z,3.07
2017-04-12T04:24:21.526Z,2.92
2017-04-12T04:25:21.721Z,3.35
2017-04-12T04:26:21.932Z,3.27
2017-04-12T04:27:22.166Z,2.68
2017-04-12T04:28:22.861Z,3.92
2017-04-12T04:29:23.083Z,2.85
2017-04-12T04:30:23.293Z,3.98
2017-04-12T04:31:23.519Z,3.18
2017-04-12T04:32:23.796Z,2.60
2017-04-12T04:33:23.998Z,3.43
2017-04-12T04:34:24.265Z,3.28
2017-04-12T04:35:24.466Z,3.03
2017-04-12T04:36:24.743Z,2.75
2017-04-12T04:37:25.026Z,2.87
2017-04-12T04:38:25.265Z,3.25
2017-04-12T04:39:25.818Z,3.08
2017-04-12T04:40:26.029Z,4.08
2017-04-12T04:41:26.404Z,4.32
2017-04-12T04:42:26.844Z,3.42
2017-04-12T04:43:27.213Z,4.15
2017-04-12T04:44:27.547Z,3.93
2017-04-12T04:45:27.820Z,3.38
2017-04-12T04:46:28.178Z,3.65
2017-04-12T04:47:28.453Z,3.75
2017-04-12T04:48:28.730Z,3.65
2017-04-12T04:49:29.104Z,4.25
2017-04-12T04:50:29.325Z,3.17
2017-04-12T04:51:29.569Z,3.38
2017-04-12T04:52:29.846Z,3.05
2017-04-12T04:53:30.317Z,3.52
2017-04-12T04:54:30.506Z,3.00
2017-04-12T04:55:30.710Z,3.38
2017-04-12T04:56:30.954Z,3.52
2017-04-12T04:57:31.207Z,4.43
2017-04-12T04:58:31.420Z,4.00
2017-04-12T04:59:31.635Z,3.42
2017-04-12T05:00:31.883Z,4.00
2017-04-12T05:01:32.112Z,4.22
2017-04-12T05:02:32.545Z,3.70
2017-04-12T05:03:32.813Z,5.05
2017-04-12T05:04:33.325Z,3.57
2017-04-12T05:05:33.539Z,5.08
2017-04-12T05:06:33.731Z,4.95
2017-04-12T05:07:34.045Z,3.38
2017-04-12T05:08:34.365Z,3.75
2017-04-12T05:09:34.619Z,3.50
2017-04-12T05:10:34.845Z,4.13
2017-04-12T05:11:35.029Z,3.52
2017-04-12T05:12:35.260Z,4.15
2017-04-12T05:13:35.486Z,4.13
2017-04-12T05:14:35.713Z,3.82
2017-04-12T05:15:35.914Z,4.17
2017-04-12T05:16:36.125Z,3.80
2017-04-12T05:17:36.522Z,4.50
2017-04-12T05:18:36.769Z,4.05
2017-04-12T05:19:36.977Z,3.43
2017-04-12T05:20:37.208Z,3.92
2017-04-12T05:21:37.469Z,4.75
2017-04-12T05:22:37.794Z,4.37
2017-04-12T05:23:38.014Z,4.73
2017-04-12T05:24:38.229Z,3.63
2017-04-12T05:25:38.437Z,3.72
2017-04-12T05:26:38.681Z,4.75
2017-04-12T05:27:38.978Z,4.40
2017-04-12T05:28:39.197Z,4.20
2017-04-12T05:29:39.409Z,4.48
2017-04-12T05:30:39.613Z,5.20
2017-04-12T05:31:39.903Z,3.87
2017-04-12T05:32:40.153Z,4.13
2017-04-12T05:33:40.430Z,4.35
2017-04-12T05:34:40.665Z,4.62
2017-04-12T05:35:40.852Z,4.38
2017-04-12T05:36:41.074Z,5.20
2017-04-12T05:37:41.314Z,4.75
2017-04-12T05:38:41.533Z,5.48
2017-04-12T05:39:41.791Z,4.53
2017-04-12T05:40:42.069Z,4.25
2017-04-12T05:41:42.473Z,4.32
2017-04-12T05:42:42.722Z,4.43
2017-04-12T05:43:43.017Z,4.15
2017-04-12T05:44:43.241Z,4.85
2017-04-12T05:45:43.439Z,4.25
2017-04-12T05:46:43.871Z,4.37
2017-04-12T05:47:44.146Z,4.32
2017-04-12T05:48:44.342Z,4.32
2017-04-12T05:49:44.559Z,3.82
2017-04-12T05:50:44.746Z,4.40
2017-04-12T05:51:46.456Z,4.28
2017-04-12T05:52:46.761Z,5.20
2017-04-12T05:53:47.167Z,4.50
2017-04-12T05:54:47.506Z,3.85
2017-04-12T05:55:47.783Z,4.05
2017-04-12T05:56:48.355Z,4.27
2017-04-12T05:57:48.850Z,4.65
2017-04-12T05:58:49.136Z,4.23
2017-04-12T05:59:50.091Z,4.02
2017-04-12T06:00:50.590Z,4.20
2017-04-12T06:01:50.810Z,3.88
2017-04-12T06:02:51.058Z,4.02
2017-04-12T06:03:51.340Z,4.33
2017-04-12T06:04:51.566Z,4.97
2017-04-12T06:05:51.817Z,4.00
2017-04-12T06:06:52.157Z,3.78
2017-04-12T06:07:52.434Z,4.68
2017-04-12T06:08:52.705Z,3.78
2017-04-12T06:09:52.984Z,3.73
2017-04-12T06:10:53.225Z,4.27
2017-04-12T06:11:53.521Z,4.48
2017-04-12T06:12:54.493Z,4.32
2017-04-12T06:13:54.821Z,4.22
2017-04-12T06:14:55.124Z,3.90
2017-04-12T06:15:55.364Z,4.30
2017-04-12T06:16:55.634Z,4.75
2017-04-12T06:17:55.891Z,4.63
2017-04-12T06:18:56.172Z,4.55
2017-04-12T06:19:56.741Z,4.30
2017-04-12T06:20:56.954Z,4.78
2017-04-12T06:21:57.274Z,4.28
2017-04-12T06:22:57.487Z,4.47
2017-04-12T06:23:57.855Z,4.35
2017-04-12T06:24:58.105Z,3.52
2017-04-12T06:25:58.637Z,5.22
2017-04-12T06:26:59.145Z,4.52
2017-04-12T06:27:59.407Z,3.53
2017-04-12T06:29:00.134Z,3.95
2017-04-12T06:30:00.409Z,4.47
2017-04-12T06:31:01.155Z,4.25
2017-04-12T06:32:01.393Z,4.93
2017-04-12T06:33:02.229Z,4.42
2017-04-12T06:34:02.489Z,4.62
2017-04-12T06:35:03.215Z,4.07
2017-04-12T06:36:03.413Z,4.43
2017-04-12T06:37:03.715Z,5.12
2017-04-12T06:38:04.031Z,4.52
2017-04-12T06:39:04.471Z,4.12
2017-04-12T06:40:04.801Z,5.02
2017-04-12T06:41:05.041Z,5.82
2017-04-12T06:42:05.301Z,5.12
2017-04-12T06:43:05.594Z,3.83
2017-04-12T06:44:05.870Z,4.42
2017-04-12T06:45:06.518Z,5.02
2017-04-12T06:46:06.935Z,4.75
2017-04-12T06:47:07.162Z,4.33
2017-04-12T06:48:07.594Z,4.23
2017-04-12T06:49:08.118Z,4.53
2017-04-12T06:50:08.509Z,4.93
2017-04-12T06:51:09.094Z,4.55
2017-04-12T06:52:09.756Z,4.57
2017-04-12T06:53:09.970Z,4.05
2017-04-12T06:54:10.178Z,4.53
2017-04-12T06:55:10.421Z,4.22
2017-04-12T06:56:11.022Z,4.60
2017-04-12T06:57:11.373Z,5.70
2017-04-12T06:58:11.582Z,4.33
2017-04-12T06:59:11.809Z,4.57
2017-04-12T07:00:12.061Z,5.00
2017-04-12T07:01:12.319Z,3.90
2017-04-12T07:02:12.545Z,4.07
2017-04-12T07:03:21.263Z,4.15
2017-04-12T07:04:21.662Z,3.58
2017-04-12T07:05:21.969Z,3.90
2017-04-12T07:06:22.355Z,4.90
2017-04-12T07:07:22.630Z,3.95
2017-04-12T07:08:22.866Z,3.98
2017-04-12T07:09:23.180Z,4.73
2017-04-12T07:10:23.463Z,4.32
2017-04-12T07:11:23.736Z,4.52
2017-04-12T07:12:23.976Z,4.12
2017-04-12T07:13:24.246Z,4.02
2017-04-12T07:14:24.569Z,4.43
2017-04-12T07:15:24.851Z,4.18
2017-04-12T07:16:25.405Z,4.13
2017-04-12T07:17:25.659Z,4.00
2017-04-12T07:18:26.055Z,4.22
2017-04-12T07:19:26.413Z,3.45
2017-04-12T07:20:27.422Z,4.07
2017-04-12T07:21:27.716Z,4.38
2017-04-12T07:22:28.154Z,4.75
2017-04-12T07:23:28.511Z,4.40
2017-04-12T07:24:28.942Z,4.07
2017-04-12T07:25:29.248Z,4.07
2017-04-12T07:26:29.697Z,5.18
2017-04-12T07:27:30.125Z,4.47
2017-04-12T07:28:30.367Z,4.30
2017-04-12T07:29:30.939Z,4.38
2017-04-12T07:30:31.179Z,5.13
2017-04-12T07:31:31.589Z,4.03
2017-04-12T07:32:31.877Z,4.53
2017-04-12T07:33:32.143Z,4.15
2017-04-12T07:34:32.531Z,4.52
2017-04-12T07:35:32.853Z,4.07
2017-04-12T07:36:33.075Z,3.95
2017-04-12T07:37:33.405Z,4.77
2017-04-12T07:38:33.634Z,4.10
2017-04-12T07:39:34.008Z,4.53
2017-04-12T07:40:34.266Z,4.10
2017-04-12T07:41:34.602Z,3.70
2017-04-12T07:42:34.854Z,3.78
2017-04-12T07:43:35.110Z,3.78
2017-04-12T07:44:35.374Z,4.28
2017-04-12T07:45:35.657Z,4.77
2017-04-12T07:46:35.858Z,4.87
2017-04-12T07:47:36.338Z,4.47
2017-04-12T07:48:36.557Z,4.03
2017-04-12T07:49:36.829Z,4.33
2017-04-12T07:50:37.087Z,5.57
2017-04-12T07:51:37.296Z,4.13
2017-04-12T07:52:37.533Z,4.13
2017-04-12T07:53:37.806Z,5.18
2017-04-12T07:54:38.110Z,4.35
2017-04-12T07:55:38.375Z,4.32
2017-04-12T07:56:38.601Z,4.48
2017-04-12T07:57:39.577Z,4.52
2017-04-12T07:58:39.793Z,4.05
2017-04-12T07:59:40.109Z,4.70
2017-04-12T08:00:40.429Z,5.08
2017-04-12T08:01:40.833Z,4.62
2017-04-12T08:02:41.185Z,5.00
2017-04-12T08:03:41.417Z,5.07
2017-04-12T08:04:41.710Z,3.72
2017-04-12T08:05:42.674Z,4.47
2017-04-12T08:06:42.955Z,4.57
2017-04-12T08:07:43.257Z,4.60
2017-04-12T08:08:43.497Z,4.78
2017-04-12T08:09:43.768Z,5.10
2017-04-12T08:10:43.973Z,4.82
2017-04-12T08:11:44.196Z,4.40
2017-04-12T08:12:44.425Z,4.83
2017-04-12T08:13:44.664Z,4.57
2017-04-12T08:14:44.957Z,4.63
2017-04-12T08:15:45.157Z,4.68
2017-04-12T08:16:45.358Z,4.45
2017-04-12T08:17:45.590Z,4.45
2017-04-12T08:18:45.849Z,4.60
2017-04-12T08:19:46.156Z,4.67
2017-04-12T08:20:46.373Z,4.22
2017-04-12T08:21:46.646Z,3.90
2017-04-12T08:22:46.875Z,4.33
2017-04-12T08:23:47.132Z,5.05
2017-04-12T08:24:47.648Z,5.25
2017-04-12T08:25:47.892Z,4.43
2017-04-12T08:26:48.428Z,4.33
2017-04-12T08:27:48.795Z,4.00
2017-04-12T08:28:49.049Z,5.13
2017-04-12T08:29:49.453Z,4.17
2017-04-12T08:30:49.722Z,4.90
2017-04-12T08:31:50.233Z,4.38
2017-04-12T08:32:50.642Z,4.50
2017-04-12T08:33:50.917Z,4.67
2017-04-12T08:34:51.182Z,4.78
2017-04-12T08:35:51.505Z,4.45
2017-04-12T08:36:51.817Z,4.38
2017-04-12T08:37:52.109Z,3.80
2017-04-12T08:38:52.351Z,4.77
2017-04-12T08:39:53.329Z,4.17
2017-04-12T08:40:53.630Z,4.18
2017-04-12T08:41:53.897Z,4.52
2017-04-12T08:42:54.162Z,4.03
2017-04-12T08:43:54.402Z,4.45
2017-04-12T08:44:54.932Z,3.98
2017-04-12T08:45:55.253Z,4.23
2017-04-12T08:46:55.521Z,4.17
2017-04-12T08:47:55.768Z,4.73
2017-04-12T08:48:56.066Z,5.05
2017-04-12T08:49:56.314Z,4.92
2017-04-12T08:50:56.632Z,3.97
2017-04-12T08:51:57.269Z,4.63
2017-04-12T08:52:57.566Z,5.25
2017-04-12T08:53:57.815Z,4.12
2017-04-12T08:54:58.147Z,4.48
2017-04-12T08:55:58.422Z,5.30
2017-04-12T08:56:58.695Z,4.98
2017-04-12T08:57:58.913Z,4.68
2017-04-12T08:58:59.161Z,4.65
2017-04-12T08:59:59.388Z,4.32
2017-04-12T09:00:59.679Z,4.43
2017-04-12T09:02:00.028Z,4.47
2017-04-12T09:03:01.317Z,4.80
2017-04-12T09:04:01.893Z,4.82
2017-04-12T09:05:02.621Z,4.68
2017-04-12T09:06:03.684Z,5.15
2017-04-12T09:07:04.394Z,5.13
2017-04-12T09:08:04.662Z,5.92
2017-04-12T09:09:05.503Z,5.30
2017-04-12T09:10:06.070Z,5.05
2017-04-12T09:11:06.365Z,5.12
2017-04-12T09:12:07.059Z,4.68
2017-04-12T09:13:07.296Z,5.45
2017-04-12T09:14:07.627Z,4.87
2017-04-12T09:15:08.009Z,4.18
2017-04-12T09:16:08.302Z,5.17
2017-04-12T09:17:08.662Z,4.75
2017-04-12T09:18:09.247Z,5.50
2017-04-12T09:19:09.534Z,4.70
2017-04-12T09:20:09.817Z,4.93
2017-04-12T09:21:10.151Z,5.50
2017-04-12T09:22:10.575Z,5.10
2017-04-12T09:23:11.001Z,5.83
2017-04-12T09:24:11.277Z,5.33
2017-04-12T09:25:11.589Z,5.98
2017-04-12T09:26:11.913Z,5.45
2017-04-12T09:27:12.150Z,5.27
2017-04-12T09:28:12.386Z,5.72
2017-04-12T09:29:12.595Z,5.52
2017-04-12T09:30:12.841Z,5.65
2017-04-12T09:31:13.129Z,5.72
2017-04-12T09:32:13.454Z,5.67
2017-04-12T09:33:13.690Z,6.42
2017-04-12T09:34:13.958Z,5.85
2017-04-12T09:35:14.171Z,5.75
2017-04-12T09:36:14.454Z,5.70
2017-04-12T09:37:14.769Z,5.15
2017-04-12T09:38:15.001Z,5.40
2017-04-12T09:39:15.239Z,5.72
2017-04-12T09:40:15.530Z,5.85
2017-04-12T09:41:15.785Z,5.93
2017-04-12T09:42:16.007Z,5.90
2017-04-12T09:43:16.304Z,7.22
2017-04-12T09:44:16.654Z,6.47
2017-04-12T09:45:17.050Z,6.42
2017-04-12T09:46:17.373Z,5.93
2017-04-12T09:47:17.597Z,5.90
2017-04-12T09:48:17.811Z,5.85
2017-04-12T09:49:18.061Z,7.30
2017-04-12T09:50:18.294Z,6.25
2017-04-12T09:51:18.609Z,6.72
2017-04-12T09:52:18.891Z,7.18
2017-04-12T09:53:19.117Z,7.48
2017-04-12T09:54:19.675Z,6.45
2017-04-12T09:55:19.978Z,5.63
2017-04-12T09:56:20.339Z,6.52
2017-04-12T09:57:20.585Z,6.68
2017-04-12T09:58:20.946Z,6.23
2017-04-12T09:59:21.253Z,6.75
2017-04-12T10:00:21.517Z,6.80
2017-04-12T10:01:21.817Z,6.45
2017-04-12T10:02:22.142Z,6.67
2017-04-12T10:03:22.442Z,6.38
2017-04-12T10:04:23.400Z,6.85
2017-04-12T10:05:23.633Z,6.00
2017-04-12T10:06:23.902Z,5.45
2017-04-12T10:07:24.160Z,6.52
2017-04-12T10:08:24.409Z,6.08
2017-04-12T10:09:24.789Z,5.80
2017-04-12T10:10:24.990Z,6.65
2017-04-12T10:11:25.355Z,5.07
2017-04-12T10:12:25.611Z,5.85
2017-04-12T10:13:25.863Z,6.63
2017-04-12T10:14:26.126Z,5.77
2017-04-12T10:15:26.359Z,6.10
2017-04-12T10:16:26.673Z,5.35
2017-04-12T10:17:26.930Z,5.62
2017-04-12T10:18:27.166Z,5.77
2017-04-12T10:19:27.586Z,6.18
2017-04-12T10:20:27.803Z,5.63
2017-04-12T10:21:28.235Z,4.62
2017-04-12T10:22:28.590Z,5.38
2017-04-12T10:23:28.815Z,6.15
2017-04-12T10:24:29.045Z,5.18
2017-04-12T10:25:29.837Z,6.53
2017-04-12T10:26:30.135Z,5.12
2017-04-12T10:27:30.391Z,6.27
2017-04-12T10:28:30.676Z,6.18
2017-04-12T10:29:31.083Z,6.98
2017-04-12T10:30:32.137Z,6.27
2017-04-12T10:31:32.422Z,5.70
2017-04-12T10:32:32.805Z,6.35
2017-04-12T10:33:33.065Z,5.95
2017-04-12T10:34:34.295Z,6.10
2017-04-12T10:35:34.533Z,6.33
2017-04-12T10:36:34.771Z,6.03
2017-04-12T10:37:35.065Z,5.77
2017-04-12T10:38:35.288Z,6.47
2017-04-12T10:39:35.605Z,5.98
2017-04-12T10:40:35.836Z,6.42
2017-04-12T10:41:36.093Z,6.02
2017-04-12T10:42:36.745Z,6.00
2017-04-12T10:43:37.066Z,7.38
2017-04-12T10:44:37.309Z,6.13
2017-04-12T10:45:37.583Z,5.77
2017-04-12T10:46:38.581Z,5.57
2017-04-12T10:47:39.133Z,7.02
2017-04-12T10:48:39.369Z,5.40
2017-04-12T10:49:39.637Z,5.13
2017-04-12T10:50:39.918Z,4.80
2017-04-12T10:51:40.129Z,5.63
2017-04-12T10:52:40.493Z,5.85
2017-04-12T10:53:40.808Z,5.73
2017-04-12T10:54:41.032Z,6.70
2017-04-12T10:55:42.027Z,5.08
2017-04-12T10:56:42.270Z,6.10
2017-04-12T10:57:42.595Z,5.60
2017-04-12T10:58:42.910Z,4.95
2017-04-12T10:59:43.185Z,6.25
2017-04-12T11:00:43.517Z,5.40
2017-04-12T11:01:44.485Z,6.18
2017-04-12T11:02:44.727Z,5.53
2017-04-12T11:03:45.041Z,6.50
2017-04-12T11:04:45.298Z,5.37
2017-04-12T11:05:45.561Z,4.83
2017-04-12T11:06:45.806Z,5.23
2017-04-12T11:07:46.100Z,5.10
2017-04-12T11:08:46.357Z,4.63
2017-04-12T11:09:46.575Z,5.10
2017-04-12T11:10:47.540Z,5.15
2017-04-12T11:11:47.797Z,5.87
2017-04-12T11:12:48.224Z,6.17
2017-04-12T11:13:48.967Z,4.82
2017-04-12T11:14:49.226Z,4.88
2017-04-12T11:15:49.502Z,6.20
2017-04-12T11:16:49.785Z,5.07
2017-04-12T11:17:50.175Z,4.73
2017-04-12T11:18:50.469Z,5.00
2017-04-12T11:19:50.842Z,4.15
2017-04-12T11:20:51.137Z,5.05
2017-04-12T11:21:51.476Z,4.72
2017-04-12T11:22:51.717Z,4.88
2017-04-12T11:23:52.213Z,3.47
2017-04-12T11:24:52.490Z,4.03
2017-04-12T11:25:52.740Z,4.25
2017-04-12T11:26:52.980Z,3.85
2017-04-12T11:27:53.274Z,3.83
2017-04-12T11:28:53.528Z,4.58
2017-04-12T11:29:53.763Z,3.63
2017-04-12T11:30:53.973Z,4.38
2017-04-12T11:31:54.230Z,4.57
2017-04-12T11:32:54.459Z,3.65
2017-04-12T11:33:55.457Z,4.12
2017-04-12T11:34:55.685Z,4.40
2017-04-12T11:35:55.985Z,4.35
2017-04-12T11:36:56.217Z,4.38
2017-04-12T11:37:56.427Z,4.25
2017-04-12T11:38:56.789Z,4.15
2017-04-12T11:39:57.073Z,4.47
2017-04-12T11:40:57.393Z,6.50
2017-04-12T11:41:57.606Z,6.23
2017-04-12T11:42:57.840Z,3.68
2017-04-12T11:43:58.081Z,3.30
2017-04-12T11:44:58.365Z,4.55
2017-04-12T11:45:58.665Z,3.20
2017-04-12T11:46:59.033Z,3.63
2017-04-12T11:47:59.321Z,3.80
2017-04-12T11:48:59.567Z,2.90
2017-04-12T11:49:59.789Z,3.67
2017-04-12T11:51:00.132Z,2.88
2017-04-12T11:52:00.421Z,2.53
2017-04-12T11:53:00.736Z,3.27
2017-04-12T11:54:01.205Z,3.10
2017-04-12T11:55:01.503Z,2.98
2017-04-12T11:56:01.762Z,3.30
2017-04-12T11:57:03.136Z,3.33
2017-04-12T11:58:03.438Z,3.47
2017-04-12T11:59:04.498Z,2.80
2017-04-12T12:00:04.752Z,3.68
2017-04-12T12:01:06.157Z,2.78
2017-04-12T12:02:06.384Z,3.77
2017-04-12T12:03:06.658Z,2.88
2017-04-12T12:04:06.930Z,3.25
2017-04-12T12:05:07.175Z,2.60
2017-04-12T12:06:07.449Z,2.42
2017-04-12T12:07:07.728Z,2.88
2017-04-12T12:08:08.057Z,2.90
2017-04-12T12:09:08.302Z,7.92
2017-04-12T12:10:08.605Z,2.85
2017-04-12T12:11:08.834Z,2.38
2017-04-12T12:12:09.216Z,2.60
2017-04-12T12:13:09.502Z,2.58
2017-04-12T12:14:09.801Z,2.50
2017-04-12T12:15:10.134Z,2.85
2017-04-12T12:16:10.567Z,3.02
2017-04-12T12:17:10.864Z,1.93
2017-04-12T12:18:11.333Z,2.33
2017-04-12T12:19:11.580Z,2.10
2017-04-12T12:20:12.031Z,1.98
2017-04-12T12:21:12.305Z,2.23
2017-04-12T12:22:12.550Z,2.25
2017-04-12T12:23:12.818Z,4.30
2017-04-12T12:24:13.078Z,2.83
2017-04-12T12:25:13.337Z,2.38
2017-04-12T12:26:13.618Z,2.40
2017-04-12T12:27:13.853Z,2.03
2017-04-12T12:28:14.801Z,2.80
2017-04-12T12:29:15.029Z,2.27
2017-04-12T12:30:15.282Z,2.77
2017-04-12T12:31:15.548Z,2.53
2017-04-12T12:32:15.804Z,2.52
2017-04-12T12:33:16.036Z,3.82
2017-04-12T12:34:16.285Z,2.37
2017-04-12T12:35:16.513Z,2.73
2017-04-12T12:36:16.801Z,1.72
2017-04-12T12:37:17.053Z,1.68
2017-04-12T12:38:17.314Z,2.30
2017-04-12T12:39:17.654Z,1.53
2017-04-12T12:40:17.889Z,1.73
2017-04-12T12:41:18.921Z,2.02
2017-04-12T12:42:19.133Z,1.95
2017-04-12T12:43:19.362Z,1.48
2017-04-12T12:44:19.588Z,1.60
2017-04-12T12:45:21.026Z,1.33
2017-04-12T12:46:21.386Z,1.68
2017-04-12T12:47:21.711Z,1.88
2017-04-12T12:48:21.937Z,1.80
2017-04-12T12:49:22.181Z,1.72
2017-04-12T12:50:22.451Z,1.90
2017-04-12T12:51:22.861Z,2.17
2017-04-12T12:52:23.169Z,1.93
2017-04-12T12:53:23.610Z,1.45
2017-04-12T12:54:23.954Z,1.87
2017-04-12T12:55:24.331Z,2.72
2017-04-12T12:56:25.063Z,1.73
2017-04-12T12:57:25.304Z,2.02
2017-04-12T12:58:25.575Z,1.42
2017-04-12T12:59:25.938Z,1.52
2017-04-12T13:00:26.319Z,2.02
2017-04-12T13:01:26.657Z,1.70
2017-04-12T13:02:26.902Z,1.98
2017-04-12T13:03:27.197Z,1.97
2017-04-12T13:04:27.498Z,1.73
2017-04-12T13:05:29.829Z,1.20
2017-04-12T13:06:30.401Z,1.65
2017-04-12T13:07:30.661Z,1.68
2017-04-12T13:08:31.838Z,1.62
2017-04-12T13:09:32.242Z,1.62
2017-04-12T13:10:33.232Z,2.00
2017-04-12T13:11:33.517Z,1.75
2017-04-12T13:12:33.803Z,1.43
2017-04-12T13:13:34.030Z,1.73
2017-04-12T13:14:34.295Z,1.23
2017-04-12T13:15:34.610Z,1.70
2017-04-12T13:16:34.850Z,1.30
2017-04-12T13:17:35.906Z,1.73
2017-04-12T13:18:36.159Z,1.60
2017-04-12T13:19:36.524Z,1.78
2017-04-12T13:20:36.797Z,1.30
2017-04-12T13:21:37.065Z,1.52
2017-04-12T13:22:37.294Z,1.33
2017-04-12T13:23:37.570Z,1.32
2017-04-12T13:24:37.795Z,1.30